Mascot, Virginia
Current Conditions -  °F | °C
As of 10:55 PM on Thursday 18 Dec 2014 (Local Time) from KFYJ Reporting Station
Scattered Clouds Scattered Clouds  
Wind Chill: 36°   Ceiling: Unl
Heat Index: 36°   Visibility: 10mi
Dew Point: 28°   Wind: 0mph
Humidity: 74%   Direction: NA
Pressure: 30.12"   Gusts: NA
Location:  37.63°N, 76.71°W
Report Text: KFYJ 190355Z AUTO 00000KT 10SM SCT100 02/M02 A3012 RMK AO2 T00201022
Loading
Personal Weather Stations






























Interactive Weather Map New forecast layout! Learn more

10-Day Weather Forecast

Advertisements
Track Severe Weather on mobile